sensor_id;sensor_type;location;lat;lon;timestamp;P1;durP1;ratioP1;P2;durP2;ratioP2
2476;SDS011;1249;51.270;6.756;2023-07-30T00:01:06;3.33;;;3.07;;
2476;SDS011;1249;51.270;6.756;2023-07-30T00:03:32;2.87;;;2.57;;
2476;SDS011;1249;51.270;6.756;2023-07-30T00:05:57;2.93;;;2.40;;
2476;SDS011;1249;51.270;6.756;2023-07-30T00:08:23;3.93;;;2.93;;
2476;SDS011;1249;51.270;6.756;2023-07-30T00:10:49;3.33;;;2.93;;
2476;SDS011;1249;51.270;6.756;2023-07-30T00:13:14;3.20;;;2.67;;
2476;SDS011;1249;51.270;6.756;2023-07-30T00:15:40;4.07;;;3.07;;
2476;SDS011;1249;51.270;6.756;2023-07-30T00:18:06;10.47;;;2.23;;
2476;SDS011;1249;51.270;6.756;2023-07-30T00:20:33;4.77;;;2.90;;
2476;SDS011;1249;51.270;6.756;2023-07-30T00:23:00;3.73;;;2.83;;
2476;SDS011;1249;51.270;6.756;2023-07-30T00:25:26;4.10;;;3.30;;
2476;SDS011;1249;51.270;6.756;2023-07-30T00:27:51;4.50;;;2.70;;
2476;SDS011;1249;51.270;6.756;2023-07-30T00:30:17;7.57;;;3.07;;
2476;SDS011;1249;51.270;6.756;2023-07-30T00:32:42;6.90;;;2.97;;
2476;SDS011;1249;51.270;6.756;2023-07-30T00:35:09;5.07;;;3.33;;
2476;SDS011;1249;51.270;6.756;2023-07-30T00:37:35;4.10;;;2.67;;
2476;SDS011;1249;51.270;6.756;2023-07-30T00:40:01;4.67;;;3.00;;
2476;SDS011;1249;51.270;6.756;2023-07-30T00:42:28;3.47;;;3.17;;
2476;SDS011;1249;51.270;6.756;2023-07-30T00:44:54;2.83;;;2.63;;
2476;SDS011;1249;51.270;6.756;2023-07-30T00:47:19;3.67;;;2.43;;
2476;SDS011;1249;51.270;6.756;2023-07-30T00:49:46;3.83;;;3.53;;
2476;SDS011;1249;51.270;6.756;2023-07-30T00:52:12;4.63;;;2.70;;
2476;SDS011;1249;51.270;6.756;2023-07-30T00:54:39;6.73;;;3.03;;
2476;SDS011;1249;51.270;6.756;2023-07-30T00:57:04;3.30;;;2.57;;
2476;SDS011;1249;51.270;6.756;2023-07-30T00:59:32;3.80;;;2.73;;
2476;SDS011;1249;51.270;6.756;2023-07-30T01:01:57;3.43;;;3.00;;
2476;SDS011;1249;51.270;6.756;2023-07-30T01:04:24;4.27;;;3.03;;
2476;SDS011;1249;51.270;6.756;2023-07-30T01:06:50;4.13;;;2.83;;
2476;SDS011;1249;51.270;6.756;2023-07-30T01:09:16;4.57;;;3.60;;
2476;SDS011;1249;51.270;6.756;2023-07-30T01:11:41;3.20;;;2.73;;
2476;SDS011;1249;51.270;6.756;2023-07-30T01:14:09;8.80;;;3.20;;
2476;SDS011;1249;51.270;6.756;2023-07-30T01:16:35;2.70;;;2.50;;
2476;SDS011;1249;51.270;6.756;2023-07-30T01:19:01;3.13;;;2.80;;
2476;SDS011;1249;51.270;6.756;2023-07-30T01:21:33;4.73;;;3.10;;
2476;SDS011;1249;51.270;6.756;2023-07-30T01:23:59;4.20;;;2.37;;
2476;SDS011;1249;51.270;6.756;2023-07-30T01:26:27;6.73;;;2.70;;
2476;SDS011;1249;51.270;6.756;2023-07-30T01:28:58;7.70;;;2.90;;
2476;SDS011;1249;51.270;6.756;2023-07-30T01:31:26;3.10;;;2.50;;
2476;SDS011;1249;51.270;6.756;2023-07-30T01:33:55;5.90;;;2.87;;
2476;SDS011;1249;51.270;6.756;2023-07-30T01:36:21;3.67;;;2.57;;
2476;SDS011;1249;51.270;6.756;2023-07-30T01:38:47;5.67;;;3.40;;
2476;SDS011;1249;51.270;6.756;2023-07-30T01:41:15;4.43;;;2.30;;
2476;SDS011;1249;51.270;6.756;2023-07-30T01:43:40;8.43;;;3.30;;
2476;SDS011;1249;51.270;6.756;2023-07-30T01:46:06;3.70;;;2.73;;
2476;SDS011;1249;51.270;6.756;2023-07-30T01:48:32;7.20;;;3.20;;
2476;SDS011;1249;51.270;6.756;2023-07-30T01:50:57;4.33;;;2.80;;
2476;SDS011;1249;51.270;6.756;2023-07-30T01:53:23;3.73;;;2.57;;
2476;SDS011;1249;51.270;6.756;2023-07-30T01:55:48;6.70;;;2.90;;
2476;SDS011;1249;51.270;6.756;2023-07-30T01:58:14;4.53;;;2.63;;
2476;SDS011;1249;51.270;6.756;2023-07-30T02:00:40;4.20;;;3.00;;
2476;SDS011;1249;51.270;6.756;2023-07-30T02:03:05;2.97;;;2.67;;
2476;SDS011;1249;51.270;6.756;2023-07-30T02:05:31;10.00;;;2.73;;
2476;SDS011;1249;51.270;6.756;2023-07-30T02:07:57;4.10;;;2.40;;
2476;SDS011;1249;51.270;6.756;2023-07-30T02:10:24;8.50;;;2.70;;
2476;SDS011;1249;51.270;6.756;2023-07-30T02:12:51;8.40;;;3.10;;
2476;SDS011;1249;51.270;6.756;2023-07-30T02:15:16;3.23;;;2.70;;
2476;SDS011;1249;51.270;6.756;2023-07-30T02:17:42;5.30;;;3.13;;
2476;SDS011;1249;51.270;6.756;2023-07-30T02:20:08;2.70;;;2.50;;
2476;SDS011;1249;51.270;6.756;2023-07-30T02:22:34;5.40;;;2.60;;
2476;SDS011;1249;51.270;6.756;2023-07-30T02:24:59;8.90;;;3.60;;
2476;SDS011;1249;51.270;6.756;2023-07-30T02:27:25;4.03;;;2.80;;
2476;SDS011;1249;51.270;6.756;2023-07-30T02:29:50;6.40;;;2.80;;
2476;SDS011;1249;51.270;6.756;2023-07-30T02:32:16;3.10;;;2.43;;
2476;SDS011;1249;51.270;6.756;2023-07-30T02:34:41;6.30;;;2.33;;
2476;SDS011;1249;51.270;6.756;2023-07-30T02:37:07;4.43;;;3.00;;
2476;SDS011;1249;51.270;6.756;2023-07-30T02:39:32;3.60;;;2.80;;
2476;SDS011;1249;51.270;6.756;2023-07-30T02:41:58;3.23;;;2.57;;
2476;SDS011;1249;51.270;6.756;2023-07-30T02:44:23;3.43;;;2.70;;
2476;SDS011;1249;51.270;6.756;2023-07-30T02:46:49;3.33;;;3.03;;
2476;SDS011;1249;51.270;6.756;2023-07-30T02:49:14;5.23;;;2.93;;
2476;SDS011;1249;51.270;6.756;2023-07-30T02:51:40;7.40;;;3.87;;
2476;SDS011;1249;51.270;6.756;2023-07-30T02:54:06;2.70;;;2.33;;
2476;SDS011;1249;51.270;6.756;2023-07-30T02:56:32;4.07;;;2.83;;
2476;SDS011;1249;51.270;6.756;2023-07-30T02:58:58;6.57;;;3.13;;
2476;SDS011;1249;51.270;6.756;2023-07-30T03:01:24;6.83;;;2.90;;
2476;SDS011;1249;51.270;6.756;2023-07-30T03:03:50;3.67;;;2.50;;
2476;SDS011;1249;51.270;6.756;2023-07-30T03:06:15;3.83;;;3.20;;
2476;SDS011;1249;51.270;6.756;2023-07-30T03:08:42;5.73;;;2.97;;
2476;SDS011;1249;51.270;6.756;2023-07-30T03:11:08;6.03;;;2.90;;
2476;SDS011;1249;51.270;6.756;2023-07-30T03:13:33;6.07;;;2.70;;
2476;SDS011;1249;51.270;6.756;2023-07-30T03:15:59;5.60;;;3.20;;
2476;SDS011;1249;51.270;6.756;2023-07-30T03:18:25;6.03;;;2.83;;
2476;SDS011;1249;51.270;6.756;2023-07-30T03:20:50;6.60;;;2.80;;
2476;SDS011;1249;51.270;6.756;2023-07-30T03:23:16;7.80;;;2.80;;
2476;SDS011;1249;51.270;6.756;2023-07-30T03:25:41;4.63;;;2.37;;
2476;SDS011;1249;51.270;6.756;2023-07-30T03:28:07;4.67;;;3.03;;
2476;SDS011;1249;51.270;6.756;2023-07-30T03:30:32;6.87;;;3.17;;
2476;SDS011;1249;51.270;6.756;2023-07-30T03:32:58;3.10;;;2.83;;
2476;SDS011;1249;51.270;6.756;2023-07-30T03:35:23;6.13;;;2.63;;
2476;SDS011;1249;51.270;6.756;2023-07-30T03:37:49;5.33;;;2.87;;
2476;SDS011;1249;51.270;6.756;2023-07-30T03:40:14;4.73;;;2.80;;
2476;SDS011;1249;51.270;6.756;2023-07-30T03:42:40;3.83;;;3.20;;
2476;SDS011;1249;51.270;6.756;2023-07-30T03:45:05;4.63;;;2.87;;
2476;SDS011;1249;51.270;6.756;2023-07-30T03:47:31;7.73;;;2.77;;
2476;SDS011;1249;51.270;6.756;2023-07-30T03:49:57;3.30;;;2.43;;
2476;SDS011;1249;51.270;6.756;2023-07-30T03:52:22;5.70;;;3.10;;
2476;SDS011;1249;51.270;6.756;2023-07-30T03:54:48;3.73;;;2.50;;
2476;SDS011;1249;51.270;6.756;2023-07-30T03:57:13;7.97;;;3.03;;
2476;SDS011;1249;51.270;6.756;2023-07-30T03:59:39;8.73;;;3.43;;
2476;SDS011;1249;51.270;6.756;2023-07-30T04:02:04;5.77;;;2.77;;
2476;SDS011;1249;51.270;6.756;2023-07-30T04:04:30;7.33;;;3.17;;
2476;SDS011;1249;51.270;6.756;2023-07-30T04:06:56;3.60;;;2.27;;
2476;SDS011;1249;51.270;6.756;2023-07-30T04:09:21;6.27;;;2.80;;
2476;SDS011;1249;51.270;6.756;2023-07-30T04:11:47;4.47;;;2.77;;
2476;SDS011;1249;51.270;6.756;2023-07-30T04:14:12;4.73;;;2.87;;
2476;SDS011;1249;51.270;6.756;2023-07-30T04:16:38;3.40;;;3.07;;
2476;SDS011;1249;51.270;6.756;2023-07-30T04:19:03;8.10;;;2.63;;
2476;SDS011;1249;51.270;6.756;2023-07-30T04:21:29;4.40;;;2.60;;
2476;SDS011;1249;51.270;6.756;2023-07-30T04:23:54;4.93;;;2.90;;
2476;SDS011;1249;51.270;6.756;2023-07-30T04:26:20;9.70;;;2.90;;
2476;SDS011;1249;51.270;6.756;2023-07-30T04:28:45;2.70;;;2.30;;
2476;SDS011;1249;51.270;6.756;2023-07-30T04:31:11;5.03;;;3.07;;
2476;SDS011;1249;51.270;6.756;2023-07-30T04:33:36;4.73;;;2.70;;
2476;SDS011;1249;51.270;6.756;2023-07-30T04:36:02;4.00;;;2.60;;
2476;SDS011;1249;51.270;6.756;2023-07-30T04:38:28;3.93;;;2.37;;
2476;SDS011;1249;51.270;6.756;2023-07-30T04:40:57;7.97;;;2.67;;
2476;SDS011;1249;51.270;6.756;2023-07-30T04:43:23;6.77;;;3.60;;
2476;SDS011;1249;51.270;6.756;2023-07-30T04:45:48;5.73;;;2.77;;
2476;SDS011;1249;51.270;6.756;2023-07-30T04:48:14;4.93;;;3.63;;
2476;SDS011;1249;51.270;6.756;2023-07-30T04:50:39;5.57;;;2.53;;
2476;SDS011;1249;51.270;6.756;2023-07-30T04:53:07;4.07;;;2.60;;
2476;SDS011;1249;51.270;6.756;2023-07-30T04:55:33;5.23;;;2.87;;
2476;SDS011;1249;51.270;6.756;2023-07-30T04:57:59;5.10;;;2.33;;
2476;SDS011;1249;51.270;6.756;2023-07-30T05:00:24;3.43;;;2.53;;
2476;SDS011;1249;51.270;6.756;2023-07-30T05:02:50;8.40;;;2.33;;
2476;SDS011;1249;51.270;6.756;2023-07-30T05:05:16;5.90;;;2.47;;
2476;SDS011;1249;51.270;6.756;2023-07-30T05:07:41;4.80;;;2.47;;
2476;SDS011;1249;51.270;6.756;2023-07-30T05:10:07;5.80;;;2.27;;
2476;SDS011;1249;51.270;6.756;2023-07-30T05:12:35;9.23;;;2.40;;
2476;SDS011;1249;51.270;6.756;2023-07-30T05:15:01;6.57;;;2.50;;
2476;SDS011;1249;51.270;6.756;2023-07-30T05:17:27;3.20;;;1.87;;
2476;SDS011;1249;51.270;6.756;2023-07-30T05:19:53;4.13;;;2.27;;
2476;SDS011;1249;51.270;6.756;2023-07-30T05:22:19;5.80;;;3.50;;
2476;SDS011;1249;51.270;6.756;2023-07-30T05:24:44;5.43;;;2.30;;
2476;SDS011;1249;51.270;6.756;2023-07-30T05:27:10;4.47;;;2.27;;
2476;SDS011;1249;51.270;6.756;2023-07-30T05:29:35;3.30;;;2.27;;
2476;SDS011;1249;51.270;6.756;2023-07-30T05:32:01;2.57;;;1.80;;
2476;SDS011;1249;51.270;6.756;2023-07-30T05:34:26;3.03;;;2.00;;
2476;SDS011;1249;51.270;6.756;2023-07-30T05:36:52;3.60;;;2.50;;
2476;SDS011;1249;51.270;6.756;2023-07-30T05:39:17;2.90;;;1.60;;
2476;SDS011;1249;51.270;6.756;2023-07-30T05:41:43;2.83;;;2.10;;
2476;SDS011;1249;51.270;6.756;2023-07-30T05:44:08;7.00;;;2.00;;
2476;SDS011;1249;51.270;6.756;2023-07-30T05:46:34;3.37;;;1.63;;
2476;SDS011;1249;51.270;6.756;2023-07-30T05:48:59;3.83;;;1.80;;
2476;SDS011;1249;51.270;6.756;2023-07-30T05:51:25;5.73;;;2.50;;
2476;SDS011;1249;51.270;6.756;2023-07-30T05:53:50;4.90;;;2.20;;
2476;SDS011;1249;51.270;6.756;2023-07-30T05:56:16;3.00;;;1.60;;
2476;SDS011;1249;51.270;6.756;2023-07-30T05:58:43;3.20;;;1.70;;
2476;SDS011;1249;51.270;6.756;2023-07-30T06:01:09;3.63;;;1.50;;
2476;SDS011;1249;51.270;6.756;2023-07-30T06:03:36;4.27;;;1.60;;
2476;SDS011;1249;51.270;6.756;2023-07-30T06:06:02;3.53;;;1.63;;
2476;SDS011;1249;51.270;6.756;2023-07-30T06:08:27;5.37;;;2.03;;
2476;SDS011;1249;51.270;6.756;2023-07-30T06:10:54;5.50;;;1.93;;
2476;SDS011;1249;51.270;6.756;2023-07-30T06:13:20;5.03;;;2.40;;
2476;SDS011;1249;51.270;6.756;2023-07-30T06:15:46;3.73;;;2.00;;
2476;SDS011;1249;51.270;6.756;2023-07-30T06:18:11;5.07;;;2.03;;
2476;SDS011;1249;51.270;6.756;2023-07-30T06:20:37;3.87;;;1.50;;
2476;SDS011;1249;51.270;6.756;2023-07-30T06:23:02;3.60;;;1.30;;
2476;SDS011;1249;51.270;6.756;2023-07-30T06:25:28;2.87;;;1.73;;
2476;SDS011;1249;51.270;6.756;2023-07-30T06:27:55;3.03;;;1.50;;
2476;SDS011;1249;51.270;6.756;2023-07-30T06:30:23;3.27;;;1.70;;
2476;SDS011;1249;51.270;6.756;2023-07-30T06:32:49;4.97;;;1.83;;
2476;SDS011;1249;51.270;6.756;2023-07-30T06:35:15;3.53;;;1.50;;
2476;SDS011;1249;51.270;6.756;2023-07-30T06:37:40;2.60;;;1.43;;
2476;SDS011;1249;51.270;6.756;2023-07-30T06:40:06;3.90;;;1.73;;
2476;SDS011;1249;51.270;6.756;2023-07-30T06:42:32;5.00;;;1.80;;
2476;SDS011;1249;51.270;6.756;2023-07-30T06:44:58;3.20;;;2.00;;
2476;SDS011;1249;51.270;6.756;2023-07-30T06:47:23;6.50;;;2.70;;
2476;SDS011;1249;51.270;6.756;2023-07-30T06:49:49;3.83;;;1.87;;
2476;SDS011;1249;51.270;6.756;2023-07-30T06:52:15;6.70;;;1.77;;
2476;SDS011;1249;51.270;6.756;2023-07-30T06:54:40;2.30;;;1.70;;
2476;SDS011;1249;51.270;6.756;2023-07-30T06:57:06;4.90;;;2.90;;
2476;SDS011;1249;51.270;6.756;2023-07-30T06:59:31;3.30;;;2.10;;
2476;SDS011;1249;51.270;6.756;2023-07-30T07:01:58;6.47;;;2.00;;
2476;SDS011;1249;51.270;6.756;2023-07-30T07:04:24;7.33;;;2.17;;
2476;SDS011;1249;51.270;6.756;2023-07-30T07:06:50;4.07;;;1.63;;
2476;SDS011;1249;51.270;6.756;2023-07-30T07:09:15;2.23;;;1.60;;
2476;SDS011;1249;51.270;6.756;2023-07-30T07:11:41;5.47;;;2.20;;
2476;SDS011;1249;51.270;6.756;2023-07-30T07:14:06;4.43;;;1.80;;
2476;SDS011;1249;51.270;6.756;2023-07-30T07:16:32;4.60;;;2.10;;
2476;SDS011;1249;51.270;6.756;2023-07-30T07:18:58;5.63;;;2.30;;
2476;SDS011;1249;51.270;6.756;2023-07-30T07:21:23;4.03;;;2.00;;
2476;SDS011;1249;51.270;6.756;2023-07-30T07:23:49;4.30;;;1.97;;
2476;SDS011;1249;51.270;6.756;2023-07-30T07:26:14;8.60;;;2.57;;
2476;SDS011;1249;51.270;6.756;2023-07-30T07:28:40;5.07;;;2.53;;
2476;SDS011;1249;51.270;6.756;2023-07-30T07:31:05;3.40;;;1.90;;
2476;SDS011;1249;51.270;6.756;2023-07-30T07:33:31;10.93;;;2.47;;
2476;SDS011;1249;51.270;6.756;2023-07-30T07:36:06;6.00;;;2.10;;
2476;SDS011;1249;51.270;6.756;2023-07-30T07:38:32;7.67;;;2.03;;
2476;SDS011;1249;51.270;6.756;2023-07-30T07:40:59;8.53;;;2.90;;
2476;SDS011;1249;51.270;6.756;2023-07-30T07:43:25;4.50;;;2.60;;
2476;SDS011;1249;51.270;6.756;2023-07-30T07:45:51;4.30;;;2.10;;
2476;SDS011;1249;51.270;6.756;2023-07-30T07:48:17;6.40;;;2.23;;
2476;SDS011;1249;51.270;6.756;2023-07-30T07:50:42;4.23;;;2.47;;
2476;SDS011;1249;51.270;6.756;2023-07-30T07:53:08;8.03;;;2.50;;
2476;SDS011;1249;51.270;6.756;2023-07-30T07:55:33;2.13;;;1.87;;
2476;SDS011;1249;51.270;6.756;2023-07-30T07:57:59;6.53;;;2.60;;
2476;SDS011;1249;51.270;6.756;2023-07-30T08:00:25;7.60;;;2.47;;
2476;SDS011;1249;51.270;6.756;2023-07-30T08:02:50;6.17;;;3.00;;
2476;SDS011;1249;51.270;6.756;2023-07-30T08:05:16;7.37;;;2.30;;
2476;SDS011;1249;51.270;6.756;2023-07-30T08:07:43;6.17;;;2.60;;
2476;SDS011;1249;51.270;6.756;2023-07-30T08:10:11;3.87;;;2.17;;
2476;SDS011;1249;51.270;6.756;2023-07-30T08:12:36;10.60;;;3.20;;
2476;SDS011;1249;51.270;6.756;2023-07-30T08:15:02;5.10;;;2.80;;
2476;SDS011;1249;51.270;6.756;2023-07-30T08:17:28;4.93;;;2.80;;
2476;SDS011;1249;51.270;6.756;2023-07-30T08:19:54;9.30;;;2.73;;
2476;SDS011;1249;51.270;6.756;2023-07-30T08:22:19;3.47;;;2.13;;
2476;SDS011;1249;51.270;6.756;2023-07-30T08:24:46;5.57;;;2.43;;
2476;SDS011;1249;51.270;6.756;2023-07-30T08:27:11;6.83;;;2.67;;
2476;SDS011;1249;51.270;6.756;2023-07-30T08:29:37;9.63;;;3.70;;
2476;SDS011;1249;51.270;6.756;2023-07-30T08:32:02;6.17;;;3.50;;
2476;SDS011;1249;51.270;6.756;2023-07-30T08:34:28;9.27;;;2.60;;
2476;SDS011;1249;51.270;6.756;2023-07-30T08:36:54;11.70;;;2.47;;
2476;SDS011;1249;51.270;6.756;2023-07-30T08:39:19;5.70;;;2.53;;
2476;SDS011;1249;51.270;6.756;2023-07-30T08:41:45;7.53;;;2.97;;
2476;SDS011;1249;51.270;6.756;2023-07-30T08:44:11;9.87;;;2.80;;
2476;SDS011;1249;51.270;6.756;2023-07-30T08:46:37;9.90;;;3.00;;
2476;SDS011;1249;51.270;6.756;2023-07-30T08:49:03;7.10;;;3.20;;
2476;SDS011;1249;51.270;6.756;2023-07-30T08:51:29;11.80;;;2.70;;
2476;SDS011;1249;51.270;6.756;2023-07-30T08:53:59;8.07;;;4.00;;
2476;SDS011;1249;51.270;6.756;2023-07-30T08:56:26;7.90;;;2.70;;
2476;SDS011;1249;51.270;6.756;2023-07-30T08:58:52;8.43;;;3.43;;
2476;SDS011;1249;51.270;6.756;2023-07-30T09:01:22;14.13;;;5.53;;
2476;SDS011;1249;51.270;6.756;2023-07-30T09:03:58;6.83;;;2.80;;
2476;SDS011;1249;51.270;6.756;2023-07-30T09:06:25;4.73;;;1.90;;
2476;SDS011;1249;51.270;6.756;2023-07-30T09:08:51;5.33;;;1.97;;
2476;SDS011;1249;51.270;6.756;2023-07-30T09:11:17;6.23;;;2.30;;
2476;SDS011;1249;51.270;6.756;2023-07-30T09:13:43;7.03;;;2.30;;
2476;SDS011;1249;51.270;6.756;2023-07-30T09:16:09;10.50;;;3.10;;
2476;SDS011;1249;51.270;6.756;2023-07-30T09:18:43;8.83;;;2.47;;
2476;SDS011;1249;51.270;6.756;2023-07-30T09:21:10;6.20;;;3.20;;
2476;SDS011;1249;51.270;6.756;2023-07-30T09:23:43;9.67;;;2.40;;
2476;SDS011;1249;51.270;6.756;2023-07-30T09:26:11;7.93;;;2.40;;
2476;SDS011;1249;51.270;6.756;2023-07-30T09:28:37;5.70;;;2.50;;
2476;SDS011;1249;51.270;6.756;2023-07-30T09:31:03;4.53;;;2.63;;
2476;SDS011;1249;51.270;6.756;2023-07-30T09:33:34;4.53;;;2.40;;
2476;SDS011;1249;51.270;6.756;2023-07-30T09:36:03;3.63;;;2.00;;
2476;SDS011;1249;51.270;6.756;2023-07-30T09:38:32;5.40;;;2.60;;
2476;SDS011;1249;51.270;6.756;2023-07-30T09:41:03;6.37;;;2.33;;
2476;SDS011;1249;51.270;6.756;2023-07-30T09:43:30;3.50;;;2.47;;
2476;SDS011;1249;51.270;6.756;2023-07-30T09:46:00;5.20;;;2.63;;
2476;SDS011;1249;51.270;6.756;2023-07-30T09:48:27;5.10;;;2.97;;
2476;SDS011;1249;51.270;6.756;2023-07-30T09:50:56;3.93;;;3.07;;
2476;SDS011;1249;51.270;6.756;2023-07-30T09:53:24;4.80;;;2.20;;
2476;SDS011;1249;51.270;6.756;2023-07-30T09:55:50;2.93;;;2.20;;
2476;SDS011;1249;51.270;6.756;2023-07-30T09:58:16;5.17;;;2.33;;
2476;SDS011;1249;51.270;6.756;2023-07-30T10:00:42;4.50;;;2.90;;
2476;SDS011;1249;51.270;6.756;2023-07-30T10:03:09;3.53;;;3.10;;
2476;SDS011;1249;51.270;6.756;2023-07-30T10:05:37;5.77;;;2.57;;
2476;SDS011;1249;51.270;6.756;2023-07-30T10:08:05;3.83;;;2.00;;
2476;SDS011;1249;51.270;6.756;2023-07-30T10:10:37;6.70;;;2.20;;
2476;SDS011;1249;51.270;6.756;2023-07-30T10:13:05;7.00;;;2.50;;
2476;SDS011;1249;51.270;6.756;2023-07-30T10:15:42;6.47;;;2.40;;
2476;SDS011;1249;51.270;6.756;2023-07-30T10:18:08;3.83;;;2.03;;
2476;SDS011;1249;51.270;6.756;2023-07-30T10:20:34;6.13;;;2.30;;
2476;SDS011;1249;51.270;6.756;2023-07-30T10:23:00;4.87;;;2.53;;
2476;SDS011;1249;51.270;6.756;2023-07-30T10:28:08;2.57;;;1.90;;
2476;SDS011;1249;51.270;6.756;2023-07-30T10:30:34;5.97;;;2.33;;
2476;SDS011;1249;51.270;6.756;2023-07-30T10:33:01;5.33;;;2.50;;
2476;SDS011;1249;51.270;6.756;2023-07-30T10:35:40;6.90;;;2.30;;
2476;SDS011;1249;51.270;6.756;2023-07-30T10:38:20;3.80;;;2.40;;
2476;SDS011;1249;51.270;6.756;2023-07-30T10:41:06;6.50;;;2.57;;
2476;SDS011;1249;51.270;6.756;2023-07-30T10:43:41;4.50;;;2.23;;
2476;SDS011;1249;51.270;6.756;2023-07-30T10:46:09;6.30;;;2.10;;
2476;SDS011;1249;51.270;6.756;2023-07-30T10:48:38;4.37;;;2.00;;
2476;SDS011;1249;51.270;6.756;2023-07-30T10:51:06;3.60;;;1.97;;
2476;SDS011;1249;51.270;6.756;2023-07-30T10:53:34;4.67;;;1.63;;
2476;SDS011;1249;51.270;6.756;2023-07-30T10:56:04;5.83;;;2.23;;
2476;SDS011;1249;51.270;6.756;2023-07-30T10:58:31;4.90;;;2.33;;
2476;SDS011;1249;51.270;6.756;2023-07-30T11:00:58;4.80;;;2.13;;
2476;SDS011;1249;51.270;6.756;2023-07-30T11:03:26;3.33;;;2.37;;
2476;SDS011;1249;51.270;6.756;2023-07-30T11:05:53;3.00;;;1.77;;
2476;SDS011;1249;51.270;6.756;2023-07-30T11:08:21;4.83;;;2.00;;
2476;SDS011;1249;51.270;6.756;2023-07-30T11:10:56;5.63;;;2.07;;
2476;SDS011;1249;51.270;6.756;2023-07-30T11:13:22;2.60;;;2.00;;
2476;SDS011;1249;51.270;6.756;2023-07-30T11:15:47;3.60;;;2.07;;
2476;SDS011;1249;51.270;6.756;2023-07-30T11:18:13;6.30;;;2.20;;
2476;SDS011;1249;51.270;6.756;2023-07-30T11:20:39;2.73;;;2.10;;
2476;SDS011;1249;51.270;6.756;2023-07-30T11:23:26;4.97;;;2.20;;
2476;SDS011;1249;51.270;6.756;2023-07-30T11:25:51;3.73;;;1.93;;
2476;SDS011;1249;51.270;6.756;2023-07-30T11:28:33;4.10;;;2.00;;
2476;SDS011;1249;51.270;6.756;2023-07-30T11:33:38;4.60;;;1.80;;
2476;SDS011;1249;51.270;6.756;2023-07-30T11:36:09;3.93;;;2.03;;
2476;SDS011;1249;51.270;6.756;2023-07-30T11:38:36;3.60;;;1.67;;
2476;SDS011;1249;51.270;6.756;2023-07-30T11:41:03;3.43;;;1.73;;
2476;SDS011;1249;51.270;6.756;2023-07-30T11:43:30;4.07;;;2.10;;
2476;SDS011;1249;51.270;6.756;2023-07-30T11:46:06;7.60;;;3.00;;
2476;SDS011;1249;51.270;6.756;2023-07-30T11:48:32;2.20;;;1.60;;
2476;SDS011;1249;51.270;6.756;2023-07-30T11:50:58;2.37;;;1.60;;
2476;SDS011;1249;51.270;6.756;2023-07-30T11:53:29;3.87;;;1.60;;
2476;SDS011;1249;51.270;6.756;2023-07-30T11:56:16;4.17;;;2.17;;
2476;SDS011;1249;51.270;6.756;2023-07-30T11:58:47;4.10;;;1.90;;
2476;SDS011;1249;51.270;6.756;2023-07-30T12:01:13;6.07;;;2.10;;
2476;SDS011;1249;51.270;6.756;2023-07-30T12:03:40;3.73;;;1.80;;
2476;SDS011;1249;51.270;6.756;2023-07-30T12:06:06;4.37;;;2.00;;
2476;SDS011;1249;51.270;6.756;2023-07-30T12:08:33;3.17;;;1.90;;
2476;SDS011;1249;51.270;6.756;2023-07-30T12:11:04;3.70;;;2.00;;
2476;SDS011;1249;51.270;6.756;2023-07-30T12:13:31;4.73;;;2.10;;
2476;SDS011;1249;51.270;6.756;2023-07-30T12:15:57;5.37;;;1.80;;
2476;SDS011;1249;51.270;6.756;2023-07-30T12:18:23;2.60;;;1.63;;
2476;SDS011;1249;51.270;6.756;2023-07-30T12:20:50;2.90;;;1.37;;
2476;SDS011;1249;51.270;6.756;2023-07-30T12:23:17;4.43;;;1.70;;
2476;SDS011;1249;51.270;6.756;2023-07-30T12:25:43;2.03;;;1.50;;
2476;SDS011;1249;51.270;6.756;2023-07-30T12:28:10;3.73;;;1.57;;
2476;SDS011;1249;51.270;6.756;2023-07-30T12:30:36;2.17;;;1.30;;
2476;SDS011;1249;51.270;6.756;2023-07-30T12:33:02;3.10;;;1.50;;
2476;SDS011;1249;51.270;6.756;2023-07-30T12:35:33;3.30;;;1.40;;
2476;SDS011;1249;51.270;6.756;2023-07-30T12:38:01;3.80;;;1.53;;
2476;SDS011;1249;51.270;6.756;2023-07-30T12:40:26;3.37;;;1.90;;
2476;SDS011;1249;51.270;6.756;2023-07-30T12:42:54;2.20;;;1.60;;
2476;SDS011;1249;51.270;6.756;2023-07-30T12:45:20;4.30;;;1.90;;
2476;SDS011;1249;51.270;6.756;2023-07-30T12:47:46;2.23;;;1.67;;
2476;SDS011;1249;51.270;6.756;2023-07-30T12:50:12;5.73;;;2.27;;
2476;SDS011;1249;51.270;6.756;2023-07-30T12:52:37;3.63;;;1.60;;
2476;SDS011;1249;51.270;6.756;2023-07-30T12:55:03;3.00;;;1.50;;
2476;SDS011;1249;51.270;6.756;2023-07-30T12:57:29;3.63;;;1.40;;
2476;SDS011;1249;51.270;6.756;2023-07-30T12:59:55;3.30;;;1.57;;
2476;SDS011;1249;51.270;6.756;2023-07-30T13:02:21;2.80;;;1.70;;
2476;SDS011;1249;51.270;6.756;2023-07-30T13:04:47;2.37;;;1.63;;
2476;SDS011;1249;51.270;6.756;2023-07-30T13:07:12;2.27;;;1.80;;
2476;SDS011;1249;51.270;6.756;2023-07-30T13:09:38;2.70;;;1.30;;
2476;SDS011;1249;51.270;6.756;2023-07-30T13:12:04;2.37;;;1.30;;
2476;SDS011;1249;51.270;6.756;2023-07-30T13:14:30;3.80;;;1.67;;
2476;SDS011;1249;51.270;6.756;2023-07-30T13:16:55;3.20;;;1.77;;
2476;SDS011;1249;51.270;6.756;2023-07-30T13:19:21;4.43;;;1.80;;
2476;SDS011;1249;51.270;6.756;2023-07-30T13:21:46;3.70;;;1.93;;
2476;SDS011;1249;51.270;6.756;2023-07-30T13:26:40;2.17;;;1.63;;
2476;SDS011;1249;51.270;6.756;2023-07-30T13:29:05;2.70;;;1.80;;
2476;SDS011;1249;51.270;6.756;2023-07-30T13:31:31;3.90;;;2.80;;
2476;SDS011;1249;51.270;6.756;2023-07-30T13:33:57;2.93;;;1.50;;
2476;SDS011;1249;51.270;6.756;2023-07-30T13:36:22;4.13;;;1.90;;
2476;SDS011;1249;51.270;6.756;2023-07-30T13:38:48;2.33;;;1.53;;
2476;SDS011;1249;51.270;6.756;2023-07-30T13:41:14;4.17;;;1.83;;
2476;SDS011;1249;51.270;6.756;2023-07-30T13:43:39;3.20;;;1.70;;
2476;SDS011;1249;51.270;6.756;2023-07-30T13:46:05;1.93;;;1.27;;
2476;SDS011;1249;51.270;6.756;2023-07-30T13:48:31;5.43;;;2.13;;
2476;SDS011;1249;51.270;6.756;2023-07-30T13:50:56;3.10;;;1.90;;
2476;SDS011;1249;51.270;6.756;2023-07-30T13:53:22;3.30;;;1.53;;
2476;SDS011;1249;51.270;6.756;2023-07-30T13:55:47;2.20;;;2.00;;
2476;SDS011;1249;51.270;6.756;2023-07-30T13:58:13;2.40;;;1.53;;
2476;SDS011;1249;51.270;6.756;2023-07-30T14:00:40;4.00;;;1.80;;
2476;SDS011;1249;51.270;6.756;2023-07-30T14:03:07;2.77;;;1.73;;
2476;SDS011;1249;51.270;6.756;2023-07-30T14:05:32;4.20;;;1.50;;
2476;SDS011;1249;51.270;6.756;2023-07-30T14:07:58;3.93;;;1.80;;
2476;SDS011;1249;51.270;6.756;2023-07-30T14:10:24;2.87;;;1.40;;
2476;SDS011;1249;51.270;6.756;2023-07-30T14:12:49;5.33;;;1.57;;
2476;SDS011;1249;51.270;6.756;2023-07-30T14:15:15;3.00;;;1.70;;
2476;SDS011;1249;51.270;6.756;2023-07-30T14:17:41;6.57;;;1.47;;
2476;SDS011;1249;51.270;6.756;2023-07-30T14:20:07;4.20;;;2.00;;
2476;SDS011;1249;51.270;6.756;2023-07-30T14:22:33;3.10;;;1.60;;
2476;SDS011;1249;51.270;6.756;2023-07-30T14:25:00;3.53;;;1.90;;
2476;SDS011;1249;51.270;6.756;2023-07-30T14:27:25;4.03;;;1.90;;
2476;SDS011;1249;51.270;6.756;2023-07-30T14:29:51;3.30;;;2.03;;
2476;SDS011;1249;51.270;6.756;2023-07-30T14:32:17;4.00;;;1.70;;
2476;SDS011;1249;51.270;6.756;2023-07-30T14:34:44;2.50;;;1.40;;
2476;SDS011;1249;51.270;6.756;2023-07-30T14:37:10;3.60;;;2.03;;
2476;SDS011;1249;51.270;6.756;2023-07-30T14:39:35;5.23;;;1.93;;
2476;SDS011;1249;51.270;6.756;2023-07-30T14:42:01;4.13;;;1.50;;
2476;SDS011;1249;51.270;6.756;2023-07-30T14:44:27;3.80;;;1.90;;
2476;SDS011;1249;51.270;6.756;2023-07-30T14:46:52;4.27;;;2.17;;
2476;SDS011;1249;51.270;6.756;2023-07-30T14:49:18;2.50;;;1.70;;
2476;SDS011;1249;51.270;6.756;2023-07-30T14:51:44;3.73;;;2.07;;
2476;SDS011;1249;51.270;6.756;2023-07-30T14:54:10;4.23;;;2.20;;
2476;SDS011;1249;51.270;6.756;2023-07-30T14:56:36;4.00;;;2.00;;
2476;SDS011;1249;51.270;6.756;2023-07-30T14:59:01;2.50;;;1.50;;
2476;SDS011;1249;51.270;6.756;2023-07-30T15:01:28;3.20;;;1.93;;
2476;SDS011;1249;51.270;6.756;2023-07-30T15:03:54;2.73;;;1.77;;
2476;SDS011;1249;51.270;6.756;2023-07-30T15:06:20;3.93;;;2.00;;
2476;SDS011;1249;51.270;6.756;2023-07-30T15:08:46;2.23;;;1.63;;
2476;SDS011;1249;51.270;6.756;2023-07-30T15:11:12;2.13;;;1.30;;
2476;SDS011;1249;51.270;6.756;2023-07-30T15:13:38;3.87;;;1.60;;
2476;SDS011;1249;51.270;6.756;2023-07-30T15:16:04;3.93;;;2.13;;
2476;SDS011;1249;51.270;6.756;2023-07-30T15:18:30;2.60;;;1.60;;